Time;durP1;ratioP1;P1;durP2;ratioP2;P2;SDS_P1;SDS_P2;PMS_P1;PMS_P2;Temp;Humidity;BMP_temperature;BMP_pressure;BME280_temperature;BME280_humidity;BME280_pressure;Samples;Min_cycle;Max_cycle;Signal;HPM_P1;HPM_P2
2022/10/06 00:01:29;;;;;;;;;;;;;;;;;;4932872;29;43569;-81
2022/10/06 00:03:56;;;;;;;;;;;;;;;;;;4933460;29;44460;-80
2022/10/06 00:06:23;;;;;;;;;;;;;;;;;;4930672;29;45745;-80
2022/10/06 00:08:50;;;;;;;;;;;;;;;;;;4932138;29;45026;-80
2022/10/06 00:11:17;;;;;;;;;;;;;;;;;;4932362;29;43800;-81
2022/10/06 00:13:44;;;;;;;;;;;;;;;;;;4931746;29;44786;-80
2022/10/06 00:16:11;;;;;;;;;;;;;;;;;;4931842;29;45790;-80
2022/10/06 00:18:38;;;;;;;;;;;;;;;;;;4927508;29;44697;-80
2022/10/06 00:21:07;;;;;;;;;;;;;;;;;;4931578;29;43504;-81
2022/10/06 00:23:33;;;;;;;;;;;;;;;;;;4931569;29;43485;-80
2022/10/06 00:26:00;;;;;;;;;;;;;;;;;;4928822;29;46014;-80
2022/10/06 00:28:27;;;;;;;;;;;;;;;;;;4933166;29;44978;-80
2022/10/06 00:30:55;;;;;;;;;;;;;;;;;;4931777;29;43592;-80
2022/10/06 00:33:25;;;;;;;;;;;;;;;;;;4930040;29;44413;-80
2022/10/06 00:35:51;;;;;;;;;;;;;;;;;;4929018;29;46171;-80
2022/10/06 00:38:18;;;;;;;;;;;;;;;;;;4928449;29;45007;-80
2022/10/06 00:40:45;;;;;;;;;;;;;;;;;;4932063;29;43683;-80
2022/10/06 00:43:12;;;;;;;;;;;;;;;;;;4932499;29;44790;-80
2022/10/06 00:45:39;;;;;;;;;;;;;;;;;;4931849;29;45816;-80
2022/10/06 00:48:06;;;;;;;;;;;;;;;;;;4931397;29;44857;-80
2022/10/06 00:50:33;;;;;;;;;;;;;;;;;;4932548;29;44727;-80
2022/10/06 00:53:00;;;;;;;;;;;;;;;;;;4931644;29;44772;-81
2022/10/06 00:55:27;;;;;;;;;;;;;;;;;;4930937;29;46025;-80
2022/10/06 00:57:54;;;;;;;;;;;;;;;;;;4931361;28;45318;-80
2022/10/06 01:00:21;;;;;;;;;;;;;;;;;;4932191;29;42712;-80
2022/10/06 01:02:48;;;;;;;;;;;;;;;;;;4931702;29;44879;-80
2022/10/06 01:05:15;;;;;;;;;;;;;;;;;;4932204;29;45674;-80
2022/10/06 01:07:42;;;;;;;;;;;;;;;;;;4932169;29;44953;-80
2022/10/06 01:10:09;;;;;;;;;;;;;;;;;;4931207;29;43688;-80
2022/10/06 01:12:36;;;;;;;;;;;;;;;;;;4931916;29;45082;-79
2022/10/06 01:15:03;;;;;;;;;;;;;;;;;;4932110;29;45996;-80
2022/10/06 01:17:30;;;;;;;;;;;;;;;;;;4931854;29;45241;-80
2022/10/06 01:19:58;;;;;;;;;;;;;;;;;;4931295;29;43476;-80
2022/10/06 01:22:26;;;;;;;;;;;;;;;;;;4932117;29;44568;-80
2022/10/06 01:24:53;;;;;;;;;;;;;;;;;;4932090;28;45842;-80
2022/10/06 01:27:20;;;;;;;;;;;;;;;;;;4932586;29;44564;-80
2022/10/06 01:29:47;;;;;;;;;;;;;;;;;;4931859;29;43258;-80
2022/10/06 01:32:14;;;;;;;;;;;;;;;;;;4932169;29;44828;-80
2022/10/06 01:34:41;;;;;;;;;;;;;;;;;;4931791;29;46216;-80
2022/10/06 01:37:08;;;;;;;;;;;;;;;;;;4932689;28;46032;-80
2022/10/06 01:39:35;;;;;;;;;;;;;;;;;;4931692;29;43579;-80
2022/10/06 01:42:02;;;;;;;;;;;;;;;;;;4931843;29;45097;-80
2022/10/06 01:44:29;;;;;;;;;;;;;;;;;;4929773;29;44971;-80
2022/10/06 01:46:56;;;;;;;;;;;;;;;;;;4932042;29;45019;-80
2022/10/06 01:49:23;;;;;;;;;;;;;;;;;;4930480;28;43804;-80
2022/10/06 01:51:50;;;;;;;;;;;;;;;;;;4933776;29;44873;-80
2022/10/06 01:54:17;;;;;;;;;;;;;;;;;;4931258;28;45648;-80
2022/10/06 01:56:44;;;;;;;;;;;;;;;;;;4931863;29;45121;-80
2022/10/06 01:59:10;;;;;;;;;;;;;;;;;;4931974;29;42803;-80
2022/10/06 02:01:37;;;;;;;;;;;;;;;;;;4933479;28;45715;-80
2022/10/06 02:04:04;;;;;;;;;;;;;;;;;;4930942;29;44994;-80
2022/10/06 02:06:31;;;;;;;;;;;;;;;;;;4931983;29;44863;-81
2022/10/06 02:08:59;;;;;;;;;;;;;;;;;;4932680;29;41106;-80
2022/10/06 02:11:26;;;;;;;;;;;;;;;;;;4931540;29;46269;-80
2022/10/06 02:13:53;;;;;;;;;;;;;;;;;;4932518;29;45771;-80
2022/10/06 02:16:20;;;;;;;;;;;;;;;;;;4929729;28;45048;-80
2022/10/06 02:18:47;;;;;;;;;;;;;;;;;;4931260;29;43761;-80
2022/10/06 02:21:14;;;;;;;;;;;;;;;;;;4931593;29;42959;-80
2022/10/06 02:23:41;;;;;;;;;;;;;;;;;;4930638;29;45720;-80
2022/10/06 02:26:08;;;;;;;;;;;;;;;;;;4930987;29;45138;-80
2022/10/06 02:28:35;;;;;;;;;;;;;;;;;;4931479;29;43851;-80
2022/10/06 02:31:02;;;;;;;;;;;;;;;;;;4935947;29;44520;-79
2022/10/06 02:33:29;;;;;;;;;;;;;;;;;;4934634;29;44072;-80
2022/10/06 02:35:57;;;;;;;;;;;;;;;;;;4934719;29;45120;-79
2022/10/06 02:38:24;;;;;;;;;;;;;;;;;;4934867;29;45071;-80
2022/10/06 02:40:52;;;;;;;;;;;;;;;;;;4934085;29;44894;-80
2022/10/06 02:43:19;;;;;;;;;;;;;;;;;;4934584;29;45684;-80
2022/10/06 02:45:47;;;;;;;;;;;;;;;;;;4933521;29;45123;-79
2022/10/06 02:48:14;;;;;;;;;;;;;;;;;;4933469;29;44602;-80
2022/10/06 02:50:41;;;;;;;;;;;;;;;;;;4933049;29;47600;-80
2022/10/06 02:53:08;;;;;;;;;;;;;;;;;;4935901;28;45832;-79
2022/10/06 02:55:35;;;;;;;;;;;;;;;;;;4933710;29;45119;-80
2022/10/06 02:58:02;;;;;;;;;;;;;;;;;;4932832;29;43691;-79
2022/10/06 03:00:29;;;;;;;;;;;;;;;;;;4934617;28;44789;-80
2022/10/06 03:02:56;;;;;;;;;;;;;;;;;;4936001;29;45143;-81
2022/10/06 03:05:23;;;;;;;;;;;;;;;;;;4935895;29;45128;-80
2022/10/06 03:07:50;;;;;;;;;;;;;;;;;;4932401;29;43664;-80
2022/10/06 03:10:17;;;;;;;;;;;;;;;;;;4934571;29;44636;-80
2022/10/06 03:12:44;;;;;;;;;;;;;;;;;;4932229;29;45733;-80
2022/10/06 03:15:11;;;;;;;;;;;;;;;;;;4934694;28;43693;-80
2022/10/06 03:17:38;;;;;;;;;;;;;;;;;;4934023;29;41736;-80
2022/10/06 03:20:05;;;;;;;;;;;;;;;;;;4933507;29;44703;-80
2022/10/06 03:22:32;;;;;;;;;;;;;;;;;;4934117;29;47124;-79
2022/10/06 03:24:59;;;;;;;;;;;;;;;;;;4933309;29;44804;-80
2022/10/06 03:27:28;;;;;;;;;;;;;;;;;;4932671;28;43201;-80
2022/10/06 03:29:55;;;;;;;;;;;;;;;;;;4933110;29;44659;-79
2022/10/06 03:32:22;;;;;;;;;;;;;;;;;;4933870;29;46399;-80
2022/10/06 03:34:51;;;;;;;;;;;;;;;;;;4930141;29;44936;-80
2022/10/06 03:37:18;;;;;;;;;;;;;;;;;;4933885;29;43177;-80
2022/10/06 03:39:46;;;;;;;;;;;;;;;;;;4931465;29;45758;-80
2022/10/06 03:42:13;;;;;;;;;;;;;;;;;;4933267;29;45482;-80
2022/10/06 03:44:40;;;;;;;;;;;;;;;;;;4933623;29;45118;-79
2022/10/06 03:47:07;;;;;;;;;;;;;;;;;;4932772;29;42329;-80
2022/10/06 03:49:37;;;;;;;;;;;;;;;;;;4932290;29;44971;-80
2022/10/06 03:52:04;;;;;;;;;;;;;;;;;;4932523;29;46690;-80
2022/10/06 03:54:31;;;;;;;;;;;;;;;;;;4932604;29;45037;-80
2022/10/06 03:56:58;;;;;;;;;;;;;;;;;;4933005;29;43603;-80
2022/10/06 03:59:28;;;;;;;;;;;;;;;;;;4932361;29;44849;-81
2022/10/06 04:01:55;;;;;;;;;;;;;;;;;;4933388;29;46873;-79
2022/10/06 04:04:22;;;;;;;;;;;;;;;;;;4932203;29;44789;-81
2022/10/06 04:06:49;;;;;;;;;;;;;;;;;;4932899;29;44533;-81
2022/10/06 04:09:15;;;;;;;;;;;;;;;;;;4932877;29;44842;-80
2022/10/06 04:11:42;;;;;;;;;;;;;;;;;;4932545;29;46107;-81
2022/10/06 04:14:09;;;;;;;;;;;;;;;;;;4933362;29;45003;-80
2022/10/06 04:16:36;;;;;;;;;;;;;;;;;;4931404;28;43555;-80
2022/10/06 04:19:03;;;;;;;;;;;;;;;;;;4932819;29;45655;-80
2022/10/06 04:21:30;;;;;;;;;;;;;;;;;;4932262;29;45784;-80
2022/10/06 04:23:57;;;;;;;;;;;;;;;;;;4932535;29;46196;-81
2022/10/06 04:26:24;;;;;;;;;;;;;;;;;;4932682;29;43539;-80
2022/10/06 04:28:51;;;;;;;;;;;;;;;;;;4932509;29;44897;-80
2022/10/06 04:31:18;;;;;;;;;;;;;;;;;;4932280;29;45828;-80
2022/10/06 04:33:45;;;;;;;;;;;;;;;;;;4932078;29;44762;-80
2022/10/06 04:36:12;;;;;;;;;;;;;;;;;;4932138;29;45589;-80
2022/10/06 04:38:39;;;;;;;;;;;;;;;;;;4932354;29;46079;-81
2022/10/06 04:41:07;;;;;;;;;;;;;;;;;;4931921;29;46141;-80
2022/10/06 04:43:34;;;;;;;;;;;;;;;;;;4932091;29;46203;-80
2022/10/06 04:46:01;;;;;;;;;;;;;;;;;;4931964;29;43059;-80
2022/10/06 04:48:44;;;;;;;;;;;;;;;;;;4930590;29;44785;-80
2022/10/06 04:51:11;;;;;;;;;;;;;;;;;;4931489;29;45702;-80
2022/10/06 04:53:38;;;;;;;;;;;;;;;;;;4930767;29;46202;-80
2022/10/06 04:56:05;;;;;;;;;;;;;;;;;;4930425;28;44703;-81
2022/10/06 04:58:32;;;;;;;;;;;;;;;;;;4931693;29;44761;-80
2022/10/06 05:00:59;;;;;;;;;;;;;;;;;;4931648;29;45825;-80
2022/10/06 05:03:27;;;;;;;;;;;;;;;;;;4932108;29;47294;-81
2022/10/06 05:05:54;;;;;;;;;;;;;;;;;;4932231;29;43593;-80
2022/10/06 05:08:21;;;;;;;;;;;;;;;;;;4931553;29;44135;-80
2022/10/06 05:10:47;;;;;;;;;;;;;;;;;;4932057;29;45609;-80
2022/10/06 05:13:14;;;;;;;;;;;;;;;;;;4931508;29;45160;-80
2022/10/06 05:15:41;;;;;;;;;;;;;;;;;;4931579;29;42947;-79
2022/10/06 05:18:08;;;;;;;;;;;;;;;;;;4931642;29;44495;-79
2022/10/06 05:20:35;;;;;;;;;;;;;;;;;;4930007;29;45782;-80
2022/10/06 05:23:02;;;;;;;;;;;;;;;;;;4931576;29;45301;-80
2022/10/06 05:25:29;;;;;;;;;;;;;;;;;;4931244;29;45101;-80
2022/10/06 05:27:56;;;;;;;;;;;;;;;;;;4930807;29;45898;-80
2022/10/06 05:30:23;;;;;;;;;;;;;;;;;;4931023;29;46625;-80
2022/10/06 05:32:51;;;;;;;;;;;;;;;;;;4928972;29;45025;-80
2022/10/06 05:35:18;;;;;;;;;;;;;;;;;;4930787;28;41890;-80
2022/10/06 05:37:45;;;;;;;;;;;;;;;;;;4928563;28;44729;-80
2022/10/06 05:40:12;;;;;;;;;;;;;;;;;;4930856;29;46029;-80
2022/10/06 05:42:39;;;;;;;;;;;;;;;;;;4930434;28;44926;-80
2022/10/06 05:45:06;;;;;;;;;;;;;;;;;;4931021;29;44767;-80
2022/10/06 05:47:33;;;;;;;;;;;;;;;;;;4929664;28;44733;-80
2022/10/06 05:50:00;;;;;;;;;;;;;;;;;;4930365;29;45833;-79
2022/10/06 05:52:27;;;;;;;;;;;;;;;;;;4928784;29;45327;-80
2022/10/06 05:54:54;;;;;;;;;;;;;;;;;;4930111;29;44752;-80
2022/10/06 05:57:21;;;;;;;;;;;;;;;;;;4929131;29;44856;-80
2022/10/06 05:59:48;;;;;;;;;;;;;;;;;;4929950;29;45661;-80
2022/10/06 06:02:16;;;;;;;;;;;;;;;;;;4930912;29;45125;-80
2022/10/06 06:04:43;;;;;;;;;;;;;;;;;;4930597;29;43789;-80
2022/10/06 06:07:10;;;;;;;;;;;;;;;;;;4929324;28;42335;-80
2022/10/06 06:09:40;;;;;;;;;;;;;;;;;;4928317;28;46791;-80
2022/10/06 06:12:07;;;;;;;;;;;;;;;;;;4931413;29;45115;-80
2022/10/06 06:17:33;;;;;;;;;;;;;;;;;;4929997;29;44457;-80
2022/10/06 06:20:00;;;;;;;;;;;;;;;;;;4930924;29;45669;-80
2022/10/06 06:22:27;;;;;;;;;;;;;;;;;;4929663;28;46956;-80
2022/10/06 06:24:54;;;;;;;;;;;;;;;;;;4931159;28;43375;-80
2022/10/06 06:27:21;;;;;;;;;;;;;;;;;;4931283;29;45184;-80
2022/10/06 06:29:49;;;;;;;;;;;;;;;;;;4931003;29;45892;-81
2022/10/06 06:32:16;;;;;;;;;;;;;;;;;;4929861;28;43105;-80
2022/10/06 06:34:43;;;;;;;;;;;;;;;;;;4930553;29;43304;-80
2022/10/06 06:37:12;;;;;;;;;;;;;;;;;;4928916;29;47828;-80
2022/10/06 06:39:41;;;;;;;;;;;;;;;;;;4928927;28;47890;-80
2022/10/06 06:42:13;;;;;;;;;;;;;;;;;;4930747;29;44331;-81
2022/10/06 06:44:40;;;;;;;;;;;;;;;;;;4929721;28;44174;-80
2022/10/06 06:47:08;;;;;;;;;;;;;;;;;;4930326;29;43697;-80
2022/10/06 06:49:35;;;;;;;;;;;;;;;;;;4927947;28;46810;-80
2022/10/06 06:52:03;;;;;;;;;;;;;;;;;;4931045;29;44135;-80
2022/10/06 06:54:32;;;;;;;;;;;;;;;;;;4930468;29;43101;-80
2022/10/06 06:57:00;;;;;;;;;;;;;;;;;;4923908;28;45840;-80
2022/10/06 06:59:28;;;;;;;;;;;;;;;;;;4930635;29;44006;-80
2022/10/06 07:01:56;;;;;;;;;;;;;;;;;;4929741;28;44933;-80
2022/10/06 07:04:23;;;;;;;;;;;;;;;;;;4929938;28;41683;-80
2022/10/06 07:06:57;;;;;;;;;;;;;;;;;;4930617;29;44617;-80
2022/10/06 07:09:27;;;;;;;;;;;;;;;;;;4930210;28;45531;-80
2022/10/06 07:11:55;;;;;;;;;;;;;;;;;;4927420;28;46380;-80
2022/10/06 07:14:25;;;;;;;;;;;;;;;;;;4927702;28;42331;-80
2022/10/06 07:25:13;;;;;;;;;;;;;;;;;;4933115;29;42483;-80
2022/10/06 07:27:42;;;;;;;;;;;;;;;;;;4927735;28;44781;-79
2022/10/06 07:30:09;;;;;;;;;;;;;;;;;;4933968;28;46959;-79
2022/10/06 07:32:36;;;;;;;;;;;;;;;;;;4933778;29;45032;-80
2022/10/06 07:35:03;;;;;;;;;;;;;;;;;;4933872;29;43577;-81
2022/10/06 07:37:30;;;;;;;;;;;;;;;;;;4933502;29;43862;-79
2022/10/06 07:39:57;;;;;;;;;;;;;;;;;;4929933;28;45399;-79
2022/10/06 07:42:24;;;;;;;;;;;;;;;;;;4927996;28;45206;-80
2022/10/06 07:47:37;;;;;;;;;;;;;;;;;;4932142;29;42903;-80
2022/10/06 07:50:04;;;;;;;;;;;;;;;;;;4932268;28;46916;-80
2022/10/06 07:52:35;;;;;;;;;;;;;;;;;;4933583;29;42749;-80
2022/10/06 07:55:02;;;;;;;;;;;;;;;;;;4927770;28;43565;-80
2022/10/06 07:57:34;;;;;;;;;;;;;;;;;;4930678;29;44585;-80
2022/10/06 08:00:04;;;;;;;;;;;;;;;;;;4933035;28;44457;-80
2022/10/06 08:02:31;;;;;;;;;;;;;;;;;;4934352;29;41980;-79
2022/10/06 08:05:01;;;;;;;;;;;;;;;;;;4933751;28;43104;-80
2022/10/06 08:07:28;;;;;;;;;;;;;;;;;;4934458;29;44399;-80
2022/10/06 08:09:55;;;;;;;;;;;;;;;;;;4936446;28;43936;-80
2022/10/06 08:12:31;;;;;;;;;;;;;;;;;;4932471;28;44680;-80
2022/10/06 08:15:02;;;;;;;;;;;;;;;;;;4940416;29;43222;-79
2022/10/06 08:17:33;;;;;;;;;;;;;;;;;;4922261;28;41751;-80
2022/10/06 08:20:00;;;;;;;;;;;;;;;;;;4935071;28;43662;-80
2022/10/06 08:22:28;;;;;;;;;;;;;;;;;;4934653;29;44786;-79
2022/10/06 08:24:56;;;;;;;;;;;;;;;;;;4933933;29;44148;-80
2022/10/06 08:27:34;;;;;;;;;;;;;;;;;;4933482;29;44339;-80
2022/10/06 08:30:01;;;;;;;;;;;;;;;;;;4932754;28;45449;-79
2022/10/06 08:32:28;;;;;;;;;;;;;;;;;;4933245;29;45007;-80
2022/10/06 08:34:55;;;;;;;;;;;;;;;;;;4934224;29;43676;-79
2022/10/06 08:37:25;;;;;;;;;;;;;;;;;;4933046;28;44742;-80
2022/10/06 08:39:52;;;;;;;;;;;;;;;;;;4933817;29;45938;-81
2022/10/06 08:42:19;;;;;;;;;;;;;;;;;;4933286;29;46450;-79
2022/10/06 08:44:46;;;;;;;;;;;;;;;;;;4932917;28;42583;-80
2022/10/06 08:47:13;;;;;;;;;;;;;;;;;;4933625;29;42484;-80
2022/10/06 08:49:40;;;;;;;;;;;;;;;;;;4934843;29;43464;-80
2022/10/06 08:52:07;;;;;;;;;;;;;;;;;;4929500;28;45530;-81
2022/10/06 08:54:34;;;;;;;;;;;;;;;;;;4934360;29;42129;-79
2022/10/06 08:57:02;;;;;;;;;;;;;;;;;;4934105;29;44663;-80
2022/10/06 08:59:30;;;;;;;;;;;;;;;;;;4933178;29;45844;-80
2022/10/06 09:01:57;;;;;;;;;;;;;;;;;;4930687;28;44678;-80
2022/10/06 09:04:27;;;;;;;;;;;;;;;;;;4933230;29;44465;-80
2022/10/06 09:06:54;;;;;;;;;;;;;;;;;;4933044;29;44877;-80
2022/10/06 09:09:21;;;;;;;;;;;;;;;;;;4933593;29;43273;-80
2022/10/06 09:11:48;;;;;;;;;;;;;;;;;;4932800;28;42350;-79
2022/10/06 09:14:15;;;;;;;;;;;;;;;;;;4937471;29;43704;-79
2022/10/06 09:16:42;;;;;;;;;;;;;;;;;;4938199;29;45056;-80
2022/10/06 09:19:11;;;;;;;;;;;;;;;;;;4938872;29;45818;-81
2022/10/06 09:21:38;;;;;;;;;;;;;;;;;;4945758;28;44262;-80
2022/10/06 09:24:05;;;;;;;;;;;;;;;;;;4940738;29;44363;-80
2022/10/06 09:26:32;;;;;;;;;;;;;;;;;;4941486;29;45881;-80
2022/10/06 09:28:59;;;;;;;;;;;;;;;;;;4941604;29;46199;-82
2022/10/06 09:31:26;;;;;;;;;;;;;;;;;;4942605;29;43819;-81
2022/10/06 09:33:54;;;;;;;;;;;;;;;;;;4946185;28;43254;-80
2022/10/06 09:36:21;;;;;;;;;;;;;;;;;;4944823;28;46430;-80
2022/10/06 09:38:48;;;;;;;;;;;;;;;;;;4946571;28;45985;-80
2022/10/06 09:41:15;;;;;;;;;;;;;;;;;;4946611;29;46082;-80
2022/10/06 09:43:42;;;;;;;;;;;;;;;;;;4945176;28;43813;-81
2022/10/06 09:46:09;;;;;;;;;;;;;;;;;;4940678;28;44420;-80
2022/10/06 09:48:37;;;;;;;;;;;;;;;;;;4943029;29;46051;-80
2022/10/06 09:51:04;;;;;;;;;;;;;;;;;;4943029;28;45127;-80
2022/10/06 09:53:32;;;;;;;;;;;;;;;;;;4942594;29;42710;-80
2022/10/06 09:56:03;;;;;;;;;;;;;;;;;;4942148;29;44892;-80
2022/10/06 09:58:36;;;;;;;;;;;;;;;;;;4939138;29;44873;-80
2022/10/06 10:01:03;;;;;;;;;;;;;;;;;;4935473;28;45128;-80
2022/10/06 10:03:32;;;;;;;;;;;;;;;;;;4940072;29;43238;-80
2022/10/06 10:06:01;;;;;;;;;;;;;;;;;;4937882;28;44875;-80
2022/10/06 10:08:31;;;;;;;;;;;;;;;;;;4939631;29;45688;-80
2022/10/06 10:11:05;;;;;;;;;;;;;;;;;;4940341;29;19930;-80
2022/10/06 10:13:32;;;;;;;;;;;;;;;;;;4939379;29;43521;-80
2022/10/06 10:15:59;;;;;;;;;;;;;;;;;;4937627;29;44755;-80
2022/10/06 10:18:29;;;;;;;;;;;;;;;;;;4932719;28;45856;-80
2022/10/06 10:20:56;;;;;;;;;;;;;;;;;;4939035;29;42291;-80
2022/10/06 10:23:23;;;;;;;;;;;;;;;;;;4936370;29;43351;-80
2022/10/06 10:25:57;;;;;;;;;;;;;;;;;;4938536;29;44551;-80
2022/10/06 10:28:24;;;;;;;;;;;;;;;;;;4938902;28;44437;-81
2022/10/06 10:30:51;;;;;;;;;;;;;;;;;;4939742;29;44806;-80
2022/10/06 10:33:19;;;;;;;;;;;;;;;;;;4935804;28;43725;-80
2022/10/06 10:35:49;;;;;;;;;;;;;;;;;;4933234;29;19938;-80
2022/10/06 10:38:17;;;;;;;;;;;;;;;;;;4936640;29;47171;-81
2022/10/06 10:40:44;;;;;;;;;;;;;;;;;;4938981;29;45440;-81
2022/10/06 10:43:11;;;;;;;;;;;;;;;;;;4937695;29;42698;-80
2022/10/06 10:45:38;;;;;;;;;;;;;;;;;;4933998;29;45700;-81
2022/10/06 10:48:05;;;;;;;;;;;;;;;;;;4935326;29;46153;-81
2022/10/06 10:50:32;;;;;;;;;;;;;;;;;;4931987;28;45220;-81
2022/10/06 10:52:59;;;;;;;;;;;;;;;;;;4938508;28;43597;-80
2022/10/06 10:55:26;;;;;;;;;;;;;;;;;;4936696;29;43848;-80
2022/10/06 10:57:58;;;;;;;;;;;;;;;;;;4934078;28;43815;-80
2022/10/06 11:00:27;;;;;;;;;;;;;;;;;;4938230;29;43805;-81
2022/10/06 11:02:54;;;;;;;;;;;;;;;;;;4936147;28;43071;-80
2022/10/06 11:05:21;;;;;;;;;;;;;;;;;;4937750;29;43539;-80
2022/10/06 11:07:52;;;;;;;;;;;;;;;;;;4937682;29;46583;-80
2022/10/06 11:10:19;;;;;;;;;;;;;;;;;;4938615;29;44953;-80
2022/10/06 11:12:47;;;;;;;;;;;;;;;;;;4934059;28;43226;-80
2022/10/06 11:15:14;;;;;;;;;;;;;;;;;;4934912;29;42098;-80
2022/10/06 11:17:45;;;;;;;;;;;;;;;;;;4934735;29;44991;-80
2022/10/06 11:20:12;;;;;;;;;;;;;;;;;;4937535;29;43067;-79
2022/10/06 11:22:40;;;;;;;;;;;;;;;;;;4936382;29;43542;-80
2022/10/06 11:25:12;;;;;;;;;;;;;;;;;;4936467;29;44914;-80
2022/10/06 11:27:39;;;;;;;;;;;;;;;;;;4935647;28;44845;-80
2022/10/06 11:30:06;;;;;;;;;;;;;;;;;;4935734;29;44713;-81
2022/10/06 11:32:33;;;;;;;;;;;;;;;;;;4937048;28;42565;-80
2022/10/06 11:35:00;;;;;;;;;;;;;;;;;;4938104;29;43960;-80
2022/10/06 11:37:27;;;;;;;;;;;;;;;;;;4933554;28;45764;-81
2022/10/06 11:39:54;;;;;;;;;;;;;;;;;;4932952;28;44118;-81
2022/10/06 11:42:22;;;;;;;;;;;;;;;;;;4937580;28;41479;-80
2022/10/06 11:44:49;;;;;;;;;;;;;;;;;;4937066;29;44129;-80
2022/10/06 11:47:18;;;;;;;;;;;;;;;;;;4937452;29;44852;-80
2022/10/06 11:50:00;;;;;;;;;;;;;;;;;;4932843;28;45427;-80
2022/10/06 11:52:28;;;;;;;;;;;;;;;;;;4930080;28;43392;-80
2022/10/06 11:54:56;;;;;;;;;;;;;;;;;;4937476;29;45053;-82
2022/10/06 11:57:24;;;;;;;;;;;;;;;;;;4937229;28;45897;-80
2022/10/06 11:59:56;;;;;;;;;;;;;;;;;;4935434;28;43742;-80
2022/10/06 12:02:23;;;;;;;;;;;;;;;;;;4937552;29;43526;-80
2022/10/06 12:04:50;;;;;;;;;;;;;;;;;;4937425;29;44558;-80
2022/10/06 12:07:17;;;;;;;;;;;;;;;;;;4935474;28;45679;-80
2022/10/06 12:09:45;;;;;;;;;;;;;;;;;;4937326;29;45845;-80
2022/10/06 12:12:12;;;;;;;;;;;;;;;;;;4936838;29;44474;-80
2022/10/06 12:14:39;;;;;;;;;;;;;;;;;;4938968;29;44350;-81
2022/10/06 12:17:26;;;;;;;;;;;;;;;;;;4937500;29;20063;-80
2022/10/06 12:19:53;;;;;;;;;;;;;;;;;;4938011;28;43775;-80
2022/10/06 12:22:21;;;;;;;;;;;;;;;;;;4939459;29;43299;-81
2022/10/06 12:24:48;;;;;;;;;;;;;;;;;;4937823;29;46431;-81
2022/10/06 12:27:18;;;;;;;;;;;;;;;;;;4927842;28;45809;-80
2022/10/06 12:29:48;;;;;;;;;;;;;;;;;;4933697;29;45454;-80
2022/10/06 12:32:18;;;;;;;;;;;;;;;;;;4936655;28;42303;-80
2022/10/06 12:34:48;;;;;;;;;;;;;;;;;;4932582;29;46369;-80
2022/10/06 12:37:17;;;;;;;;;;;;;;;;;;4933816;29;44870;-80
2022/10/06 12:39:44;;;;;;;;;;;;;;;;;;4938807;29;46307;-80
2022/10/06 12:42:13;;;;;;;;;;;;;;;;;;4938130;29;41729;-80
2022/10/06 12:44:40;;;;;;;;;;;;;;;;;;4935915;28;44248;-80
2022/10/06 12:47:08;;;;;;;;;;;;;;;;;;4937669;29;45521;-80
2022/10/06 12:49:39;;;;;;;;;;;;;;;;;;4932724;29;46090;-80
2022/10/06 12:52:07;;;;;;;;;;;;;;;;;;4938261;29;43370;-80
2022/10/06 12:54:34;;;;;;;;;;;;;;;;;;4937740;29;43671;-80
2022/10/06 12:57:01;;;;;;;;;;;;;;;;;;4938193;29;46573;-80
2022/10/06 12:59:33;;;;;;;;;;;;;;;;;;4933966;28;44081;-80
2022/10/06 13:02:00;;;;;;;;;;;;;;;;;;4937251;29;42579;-80
2022/10/06 13:04:27;;;;;;;;;;;;;;;;;;4937147;29;44467;-80
2022/10/06 13:06:54;;;;;;;;;;;;;;;;;;4936644;29;45243;-80
2022/10/06 13:09:21;;;;;;;;;;;;;;;;;;4930136;29;46106;-80
2022/10/06 13:11:48;;;;;;;;;;;;;;;;;;4932756;28;43704;-80
2022/10/06 13:14:15;;;;;;;;;;;;;;;;;;4936946;29;43435;-80
2022/10/06 13:16:42;;;;;;;;;;;;;;;;;;4938389;29;45634;-80
2022/10/06 13:19:09;;;;;;;;;;;;;;;;;;4935929;28;44095;-80
2022/10/06 13:21:36;;;;;;;;;;;;;;;;;;4936558;29;43555;-80
2022/10/06 13:24:03;;;;;;;;;;;;;;;;;;4934361;29;43156;-81
2022/10/06 13:26:31;;;;;;;;;;;;;;;;;;4938565;29;45764;-80
2022/10/06 13:28:58;;;;;;;;;;;;;;;;;;4937013;29;42766;-80
2022/10/06 13:31:29;;;;;;;;;;;;;;;;;;4936769;28;43272;-80
2022/10/06 13:33:56;;;;;;;;;;;;;;;;;;4935639;28;43762;-80
2022/10/06 13:36:23;;;;;;;;;;;;;;;;;;4938538;29;44730;-80
2022/10/06 13:38:50;;;;;;;;;;;;;;;;;;4938875;28;44598;-81
2022/10/06 13:41:18;;;;;;;;;;;;;;;;;;4937873;29;43381;-80
2022/10/06 13:43:45;;;;;;;;;;;;;;;;;;4935056;28;44665;-80
2022/10/06 13:46:12;;;;;;;;;;;;;;;;;;4939308;29;43708;-80
2022/10/06 13:48:39;;;;;;;;;;;;;;;;;;4939243;29;44750;-79
2022/10/06 13:51:06;;;;;;;;;;;;;;;;;;4933572;28;43570;-80
2022/10/06 13:53:33;;;;;;;;;;;;;;;;;;4937101;28;45948;-80
2022/10/06 13:56:00;;;;;;;;;;;;;;;;;;4929386;29;46764;-79
2022/10/06 13:58:31;;;;;;;;;;;;;;;;;;4931378;28;20525;-80
2022/10/06 14:00:59;;;;;;;;;;;;;;;;;;4936768;29;41203;-80
2022/10/06 14:03:27;;;;;;;;;;;;;;;;;;4937653;29;43691;-82
2022/10/06 14:05:54;;;;;;;;;;;;;;;;;;4938947;29;44744;-82
2022/10/06 14:08:22;;;;;;;;;;;;;;;;;;4941226;28;41905;-81
2022/10/06 14:10:49;;;;;;;;;;;;;;;;;;4944165;29;41428;-81
2022/10/06 14:13:16;;;;;;;;;;;;;;;;;;4938555;29;42996;-80
2022/10/06 14:15:43;;;;;;;;;;;;;;;;;;4942516;29;42555;-81
2022/10/06 14:18:10;;;;;;;;;;;;;;;;;;4939329;28;43766;-80
2022/10/06 14:20:40;;;;;;;;;;;;;;;;;;4937205;28;42574;-80
2022/10/06 14:23:07;;;;;;;;;;;;;;;;;;4937197;28;43446;-80
2022/10/06 14:25:34;;;;;;;;;;;;;;;;;;4938341;28;46026;-80
2022/10/06 14:28:01;;;;;;;;;;;;;;;;;;4937186;29;44020;-81
2022/10/06 14:30:28;;;;;;;;;;;;;;;;;;4940708;29;43460;-80
2022/10/06 14:32:56;;;;;;;;;;;;;;;;;;4941010;29;43226;-80
2022/10/06 14:35:23;;;;;;;;;;;;;;;;;;4942115;29;43492;-80
2022/10/06 14:37:50;;;;;;;;;;;;;;;;;;4939798;28;45359;-81
2022/10/06 14:40:20;;;;;;;;;;;;;;;;;;4942648;29;42163;-81
2022/10/06 14:42:47;;;;;;;;;;;;;;;;;;4944968;29;44536;-80
2022/10/06 14:45:19;;;;;;;;;;;;;;;;;;4945633;29;19926;-80
2022/10/06 14:47:48;;;;;;;;;;;;;;;;;;4946908;29;44924;-80
2022/10/06 14:50:15;;;;;;;;;;;;;;;;;;4941855;29;43080;-80
2022/10/06 14:52:42;;;;;;;;;;;;;;;;;;4936783;29;44215;-80
2022/10/06 14:55:09;;;;;;;;;;;;;;;;;;4940299;29;45866;-80
2022/10/06 14:57:36;;;;;;;;;;;;;;;;;;4932191;29;44857;-80
2022/10/06 15:00:04;;;;;;;;;;;;;;;;;;4936049;29;45009;-82
2022/10/06 15:02:31;;;;;;;;;;;;;;;;;;4937959;29;44643;-80
2022/10/06 15:04:58;;;;;;;;;;;;;;;;;;4939056;29;44402;-80
2022/10/06 15:10:13;;;;;;;;;;;;;;;;;;4936198;29;42618;-81
2022/10/06 15:12:40;;;;;;;;;;;;;;;;;;4939567;29;44876;-80
2022/10/06 15:15:07;;;;;;;;;;;;;;;;;;4936550;28;45747;-80
2022/10/06 15:17:35;;;;;;;;;;;;;;;;;;4937038;28;44926;-81
2022/10/06 15:20:02;;;;;;;;;;;;;;;;;;4938062;29;40611;-81
2022/10/06 15:22:30;;;;;;;;;;;;;;;;;;4936372;28;43687;-80
2022/10/06 15:25:01;;;;;;;;;;;;;;;;;;4935322;28;46913;-81
2022/10/06 15:30:14;;;;;;;;;;;;;;;;;;4929525;29;43228;-80
2022/10/06 15:32:43;;;;;;;;;;;;;;;;;;4938469;29;44923;-80
2022/10/06 15:35:10;;;;;;;;;;;;;;;;;;4938181;28;43627;-81
2022/10/06 15:37:38;;;;;;;;;;;;;;;;;;4937331;29;45005;-80
2022/10/06 15:40:05;;;;;;;;;;;;;;;;;;4937948;29;45558;-80
2022/10/06 15:42:34;;;;;;;;;;;;;;;;;;4933723;28;44389;-80
2022/10/06 15:45:01;;;;;;;;;;;;;;;;;;4940200;29;44511;-80
2022/10/06 15:47:33;;;;;;;;;;;;;;;;;;4934541;29;44634;-81
2022/10/06 15:50:02;;;;;;;;;;;;;;;;;;4938419;29;45110;-80
2022/10/06 15:52:32;;;;;;;;;;;;;;;;;;4938114;29;44688;-81
2022/10/06 15:54:59;;;;;;;;;;;;;;;;;;4938090;29;45951;-81
2022/10/06 15:57:28;;;;;;;;;;;;;;;;;;4936653;29;43503;-80
2022/10/06 15:59:56;;;;;;;;;;;;;;;;;;4939458;29;43463;-80
2022/10/06 16:02:23;;;;;;;;;;;;;;;;;;4937842;28;45792;-80
2022/10/06 16:07:31;;;;;;;;;;;;;;;;;;4937880;29;44804;-80
2022/10/06 16:10:03;;;;;;;;;;;;;;;;;;4935410;29;45146;-80
2022/10/06 16:12:31;;;;;;;;;;;;;;;;;;4938996;29;44875;-80
2022/10/06 16:14:58;;;;;;;;;;;;;;;;;;4938160;29;45606;-80
2022/10/06 16:17:25;;;;;;;;;;;;;;;;;;4938594;29;46635;-80
2022/10/06 16:19:52;;;;;;;;;;;;;;;;;;4935207;29;43431;-81
2022/10/06 16:22:20;;;;;;;;;;;;;;;;;;4937267;29;44667;-80
2022/10/06 16:24:47;;;;;;;;;;;;;;;;;;4936799;29;44427;-80
2022/10/06 16:27:14;;;;;;;;;;;;;;;;;;4930238;28;45228;-80
2022/10/06 16:29:42;;;;;;;;;;;;;;;;;;4934244;29;43529;-81
2022/10/06 16:32:09;;;;;;;;;;;;;;;;;;4937672;29;46061;-80
2022/10/06 16:34:36;;;;;;;;;;;;;;;;;;4937158;29;47633;-80
2022/10/06 16:37:03;;;;;;;;;;;;;;;;;;4936136;28;45169;-80
2022/10/06 16:39:30;;;;;;;;;;;;;;;;;;4938313;28;42543;-80
2022/10/06 16:41:58;;;;;;;;;;;;;;;;;;4936784;28;44550;-80
2022/10/06 16:44:25;;;;;;;;;;;;;;;;;;4937638;29;45781;-80
2022/10/06 16:46:54;;;;;;;;;;;;;;;;;;4936707;28;44051;-80
2022/10/06 16:49:23;;;;;;;;;;;;;;;;;;4937402;29;41474;-80
2022/10/06 16:51:53;;;;;;;;;;;;;;;;;;4938711;29;43061;-81
2022/10/06 16:54:24;;;;;;;;;;;;;;;;;;4935419;29;46149;-80
2022/10/06 16:57:00;;;;;;;;;;;;;;;;;;4937856;29;44103;-80
2022/10/06 16:59:28;;;;;;;;;;;;;;;;;;4937454;29;43607;-80
2022/10/06 17:01:55;;;;;;;;;;;;;;;;;;4939169;29;43300;-80
2022/10/06 17:04:22;;;;;;;;;;;;;;;;;;4938105;28;45718;-80
2022/10/06 17:06:49;;;;;;;;;;;;;;;;;;4940385;29;44256;-80
2022/10/06 17:09:16;;;;;;;;;;;;;;;;;;4938118;28;44304;-80
2022/10/06 17:11:43;;;;;;;;;;;;;;;;;;4935742;29;44864;-80